sensor_id;sensor_type;location;lat;lon;timestamp;pressure;altitude;pressure_sealevel;temperature;humidity
39555;BME280;25231;48.746;9.234;2022-11-06T00:00:32;97123.06;;;4.68;100.00
39555;BME280;25231;48.746;9.234;2022-11-06T00:02:59;97120.41;;;4.62;100.00
39555;BME280;25231;48.746;9.234;2022-11-06T00:05:26;97115.13;;;4.55;100.00
39555;BME280;25231;48.746;9.234;2022-11-06T00:08:10;97118.25;;;4.50;100.00
39555;BME280;25231;48.746;9.234;2022-11-06T00:10:36;97118.69;;;4.54;100.00
39555;BME280;25231;48.746;9.234;2022-11-06T00:13:01;97116.56;;;4.43;100.00
39555;BME280;25231;48.746;9.234;2022-11-06T00:15:27;97107.88;;;4.50;100.00
39555;BME280;25231;48.746;9.234;2022-11-06T00:17:52;97100.56;;;4.39;100.00
39555;BME280;25231;48.746;9.234;2022-11-06T00:20:18;97100.63;;;4.46;100.00
39555;BME280;25231;48.746;9.234;2022-11-06T00:22:43;97095.34;;;4.54;100.00
39555;BME280;25231;48.746;9.234;2022-11-06T00:25:09;97090.06;;;4.47;100.00
39555;BME280;25231;48.746;9.234;2022-11-06T00:27:36;97089.34;;;4.53;100.00
39555;BME280;25231;48.746;9.234;2022-11-06T00:30:03;97086.13;;;4.51;100.00
39555;BME280;25231;48.746;9.234;2022-11-06T00:32:30;97088.38;;;4.54;100.00
39555;BME280;25231;48.746;9.234;2022-11-06T00:34:55;97098.09;;;4.52;100.00
39555;BME280;25231;48.746;9.234;2022-11-06T00:37:20;97101.06;;;4.49;100.00
39555;BME280;25231;48.746;9.234;2022-11-06T00:39:46;97109.84;;;4.48;100.00
39555;BME280;25231;48.746;9.234;2022-11-06T00:42:11;97101.53;;;4.38;100.00
39555;BME280;25231;48.746;9.234;2022-11-06T00:44:36;97106.47;;;4.33;100.00
39555;BME280;25231;48.746;9.234;2022-11-06T00:47:01;97103.34;;;4.23;100.00
39555;BME280;25231;48.746;9.234;2022-11-06T00:49:27;97101.00;;;4.28;100.00
39555;BME280;25231;48.746;9.234;2022-11-06T00:51:53;97109.06;;;4.33;100.00
39555;BME280;25231;48.746;9.234;2022-11-06T00:54:18;97106.19;;;4.28;100.00
39555;BME280;25231;48.746;9.234;2022-11-06T00:56:43;97107.31;;;4.40;100.00
39555;BME280;25231;48.746;9.234;2022-11-06T00:59:11;97112.34;;;4.42;100.00
39555;BME280;25231;48.746;9.234;2022-11-06T01:01:39;97113.78;;;4.44;100.00
39555;BME280;25231;48.746;9.234;2022-11-06T01:04:12;97107.31;;;4.40;100.00
39555;BME280;25231;48.746;9.234;2022-11-06T01:06:42;97106.34;;;4.41;100.00
39555;BME280;25231;48.746;9.234;2022-11-06T01:09:10;97100.81;;;4.30;100.00
39555;BME280;25231;48.746;9.234;2022-11-06T01:11:40;97094.81;;;4.29;100.00
39555;BME280;25231;48.746;9.234;2022-11-06T01:14:07;97099.22;;;4.29;100.00
39555;BME280;25231;48.746;9.234;2022-11-06T01:16:34;97098.22;;;4.30;100.00
39555;BME280;25231;48.746;9.234;2022-11-06T01:18:59;97107.25;;;4.34;100.00
39555;BME280;25231;48.746;9.234;2022-11-06T01:21:28;97111.38;;;4.28;100.00
39555;BME280;25231;48.746;9.234;2022-11-06T01:23:56;97107.63;;;4.16;100.00
39555;BME280;25231;48.746;9.234;2022-11-06T01:26:22;97108.31;;;4.25;100.00
39555;BME280;25231;48.746;9.234;2022-11-06T01:28:48;97101.00;;;4.28;100.00
39555;BME280;25231;48.746;9.234;2022-11-06T01:31:17;97101.53;;;4.09;100.00
39555;BME280;25231;48.746;9.234;2022-11-06T01:33:42;97102.41;;;4.01;100.00
39555;BME280;25231;48.746;9.234;2022-11-06T01:36:10;97100.81;;;4.00;100.00
39555;BME280;25231;48.746;9.234;2022-11-06T01:38:35;97106.94;;;3.85;100.00
39555;BME280;25231;48.746;9.234;2022-11-06T01:41:03;97106.06;;;3.78;100.00
39555;BME280;25231;48.746;9.234;2022-11-06T01:46:15;97093.63;;;3.73;100.00
39555;BME280;25231;48.746;9.234;2022-11-06T01:48:45;97098.66;;;3.89;100.00
39555;BME280;25231;48.746;9.234;2022-11-06T01:51:12;97096.66;;;3.76;100.00
39555;BME280;25231;48.746;9.234;2022-11-06T01:53:38;97095.84;;;3.76;100.00
39555;BME280;25231;48.746;9.234;2022-11-06T01:56:07;97087.53;;;3.66;100.00
39555;BME280;25231;48.746;9.234;2022-11-06T01:58:36;97091.91;;;3.80;100.00
39555;BME280;25231;48.746;9.234;2022-11-06T02:01:02;97093.63;;;3.73;100.00
39555;BME280;25231;48.746;9.234;2022-11-06T02:03:28;97091.09;;;3.80;100.00
39555;BME280;25231;48.746;9.234;2022-11-06T02:05:55;97091.47;;;3.91;100.00
39555;BME280;25231;48.746;9.234;2022-11-06T02:08:22;97093.81;;;3.86;100.00
39555;BME280;25231;48.746;9.234;2022-11-06T02:10:49;97086.38;;;3.83;100.00
39555;BME280;25231;48.746;9.234;2022-11-06T02:15:51;97083.31;;;3.80;100.00
39555;BME280;25231;48.746;9.234;2022-11-06T02:21:04;97075.53;;;3.65;100.00
39555;BME280;25231;48.746;9.234;2022-11-06T02:23:56;97083.59;;;3.70;100.00
39555;BME280;25231;48.746;9.234;2022-11-06T02:29:32;97075.25;;;3.60;100.00
39555;BME280;25231;48.746;9.234;2022-11-06T02:32:04;97073.22;;;3.70;100.00
39555;BME280;25231;48.746;9.234;2022-11-06T02:34:31;97071.44;;;3.70;100.00
39555;BME280;25231;48.746;9.234;2022-11-06T02:37:12;97062.19;;;3.53;100.00
39555;BME280;25231;48.746;9.234;2022-11-06T02:39:41;97056.16;;;3.61;100.00
39555;BME280;25231;48.746;9.234;2022-11-06T02:42:09;97058.38;;;3.64;100.00
39555;BME280;25231;48.746;9.234;2022-11-06T02:44:37;97060.78;;;3.65;100.00
39555;BME280;25231;48.746;9.234;2022-11-06T02:47:07;97041.47;;;3.68;100.00
39555;BME280;25231;48.746;9.234;2022-11-06T02:52:11;97042.53;;;3.44;100.00
39555;BME280;25231;48.746;9.234;2022-11-06T02:54:43;97038.66;;;3.40;100.00
39555;BME280;25231;48.746;9.234;2022-11-06T02:57:11;97033.47;;;3.40;100.00
39555;BME280;25231;48.746;9.234;2022-11-06T03:00:00;97022.28;;;3.25;100.00
39555;BME280;25231;48.746;9.234;2022-11-06T03:02:31;97018.47;;;3.35;100.00
39555;BME280;25231;48.746;9.234;2022-11-06T03:05:05;97009.28;;;3.33;100.00
39555;BME280;25231;48.746;9.234;2022-11-06T03:07:36;97007.22;;;3.28;100.00
39555;BME280;25231;48.746;9.234;2022-11-06T03:10:04;97012.47;;;3.35;100.00
39555;BME280;25231;48.746;9.234;2022-11-06T03:12:49;97004.25;;;3.17;100.00
39555;BME280;25231;48.746;9.234;2022-11-06T03:15:33;97004.25;;;3.17;100.00
39555;BME280;25231;48.746;9.234;2022-11-06T03:18:37;97001.41;;;3.04;100.00
39555;BME280;25231;48.746;9.234;2022-11-06T03:21:16;97001.59;;;3.02;100.00
39555;BME280;25231;48.746;9.234;2022-11-06T03:23:57;97006.16;;;3.00;100.00
39555;BME280;25231;48.746;9.234;2022-11-06T03:26:35;97002.06;;;2.83;100.00
39555;BME280;25231;48.746;9.234;2022-11-06T03:29:12;97004.34;;;2.55;100.00
39555;BME280;25231;48.746;9.234;2022-11-06T03:31:49;97009.28;;;2.65;100.00
39555;BME280;25231;48.746;9.234;2022-11-06T03:34:24;97008.00;;;2.38;100.00
39555;BME280;25231;48.746;9.234;2022-11-06T03:36:58;96998.78;;;2.35;100.00
39555;BME280;25231;48.746;9.234;2022-11-06T03:39:30;97005.41;;;2.38;100.00
39555;BME280;25231;48.746;9.234;2022-11-06T03:42:05;96999.16;;;2.24;100.00
39555;BME280;25231;48.746;9.234;2022-11-06T03:44:35;96994.91;;;2.39;100.00
39555;BME280;25231;48.746;9.234;2022-11-06T03:47:19;97002.19;;;2.36;100.00
39555;BME280;25231;48.746;9.234;2022-11-06T03:49:55;96989.78;;;2.23;100.00
39555;BME280;25231;48.746;9.234;2022-11-06T03:53:11;96994.34;;;2.21;100.00
39555;BME280;25231;48.746;9.234;2022-11-06T03:55:20;96987.03;;;2.25;100.00
39555;BME280;25231;48.746;9.234;2022-11-06T03:57:54;96982.69;;;2.25;100.00
39555;BME280;25231;48.746;9.234;2022-11-06T04:00:21;96989.63;;;2.25;100.00
39555;BME280;25231;48.746;9.234;2022-11-06T04:02:55;96985.81;;;2.13;100.00
39555;BME280;25231;48.746;9.234;2022-11-06T04:05:31;96989.50;;;2.18;100.00
39555;BME280;25231;48.746;9.234;2022-11-06T04:07:58;96993.19;;;2.24;100.00
39555;BME280;25231;48.746;9.234;2022-11-06T04:10:44;96975.72;;;1.95;100.00
39555;BME280;25231;48.746;9.234;2022-11-06T04:13:31;96961.25;;;1.78;100.00
39555;BME280;25231;48.746;9.234;2022-11-06T04:16:17;96960.25;;;1.87;100.00
39555;BME280;25231;48.746;9.234;2022-11-06T04:18:42;96960.75;;;1.82;100.00
39555;BME280;25231;48.746;9.234;2022-11-06T04:21:32;96957.06;;;1.68;100.00
39555;BME280;25231;48.746;9.234;2022-11-06T04:24:24;96950.94;;;1.70;100.00
39555;BME280;25231;48.746;9.234;2022-11-06T04:38:28;96937.81;;;1.79;100.00
39555;BME280;25231;48.746;9.234;2022-11-06T04:43:41;96916.44;;;1.93;100.00
39555;BME280;25231;48.746;9.234;2022-11-06T04:46:11;96908.84;;;1.92;100.00
39555;BME280;25231;48.746;9.234;2022-11-06T04:48:38;96909.66;;;1.92;100.00
39555;BME280;25231;48.746;9.234;2022-11-06T04:51:07;96916.38;;;2.01;100.00
39555;BME280;25231;48.746;9.234;2022-11-06T04:53:35;96915.16;;;2.20;100.00
39555;BME280;25231;48.746;9.234;2022-11-06T04:56:12;96917.72;;;2.28;100.00
39555;BME280;25231;48.746;9.234;2022-11-06T04:58:38;96907.59;;;2.41;100.00
39555;BME280;25231;48.746;9.234;2022-11-06T05:01:04;96901.03;;;2.54;100.00
39555;BME280;25231;48.746;9.234;2022-11-06T05:03:29;96895.81;;;2.62;100.00
39555;BME280;25231;48.746;9.234;2022-11-06T05:05:55;96900.69;;;2.57;100.00
39555;BME280;25231;48.746;9.234;2022-11-06T05:08:20;96906.66;;;2.57;100.00
39555;BME280;25231;48.746;9.234;2022-11-06T05:10:47;96908.38;;;2.65;100.00
39555;BME280;25231;48.746;9.234;2022-11-06T05:13:14;96924.03;;;2.71;100.00
39555;BME280;25231;48.746;9.234;2022-11-06T05:15:40;96932.88;;;2.77;100.00
39555;BME280;25231;48.746;9.234;2022-11-06T05:18:05;96934.03;;;2.74;100.00
39555;BME280;25231;48.746;9.234;2022-11-06T05:20:31;96942.06;;;2.79;100.00
39555;BME280;25231;48.746;9.234;2022-11-06T05:22:57;96942.72;;;2.81;100.00
39555;BME280;25231;48.746;9.234;2022-11-06T05:25:33;96937.25;;;2.76;100.00
39555;BME280;25231;48.746;9.234;2022-11-06T05:28:00;96933.13;;;2.67;100.00
39555;BME280;25231;48.746;9.234;2022-11-06T05:30:26;96943.41;;;2.75;100.00
39555;BME280;25231;48.746;9.234;2022-11-06T05:32:52;96931.09;;;2.77;100.00
39555;BME280;25231;48.746;9.234;2022-11-06T05:35:19;96936.59;;;2.74;100.00
39555;BME280;25231;48.746;9.234;2022-11-06T05:37:44;96936.59;;;2.74;100.00
39555;BME280;25231;48.746;9.234;2022-11-06T05:40:10;96950.91;;;2.85;100.00
39555;BME280;25231;48.746;9.234;2022-11-06T05:42:39;96942.53;;;2.83;100.00
39555;BME280;25231;48.746;9.234;2022-11-06T05:45:06;96939.75;;;2.84;100.00
39555;BME280;25231;48.746;9.234;2022-11-06T05:47:31;96926.81;;;2.84;100.00
39555;BME280;25231;48.746;9.234;2022-11-06T05:49:57;96907.16;;;2.75;100.00
39555;BME280;25231;48.746;9.234;2022-11-06T05:52:22;96908.94;;;2.75;100.00
39555;BME280;25231;48.746;9.234;2022-11-06T05:54:48;96909.59;;;2.77;100.00
39555;BME280;25231;48.746;9.234;2022-11-06T05:57:13;96909.44;;;2.78;100.00
39555;BME280;25231;48.746;9.234;2022-11-06T05:59:38;96911.47;;;2.83;100.00
39555;BME280;25231;48.746;9.234;2022-11-06T06:02:03;96925.50;;;2.88;100.00
39555;BME280;25231;48.746;9.234;2022-11-06T06:04:29;96934.56;;;2.84;100.00
39555;BME280;25231;48.746;9.234;2022-11-06T06:06:54;96935.88;;;2.88;100.00
39555;BME280;25231;48.746;9.234;2022-11-06T06:09:20;96937.41;;;2.98;100.00
39555;BME280;25231;48.746;9.234;2022-11-06T06:11:45;96931.56;;;2.96;100.00
39555;BME280;25231;48.746;9.234;2022-11-06T06:14:10;96933.06;;;2.90;100.00
39555;BME280;25231;48.746;9.234;2022-11-06T06:16:36;96928.25;;;2.87;100.00
39555;BME280;25231;48.746;9.234;2022-11-06T06:19:01;96929.94;;;2.80;100.00
39555;BME280;25231;48.746;9.234;2022-11-06T06:21:26;96945.53;;;2.72;100.00
39555;BME280;25231;48.746;9.234;2022-11-06T06:23:52;96948.94;;;2.72;100.00
39555;BME280;25231;48.746;9.234;2022-11-06T06:26:17;96937.56;;;2.73;100.00
39555;BME280;25231;48.746;9.234;2022-11-06T06:28:42;96936.00;;;2.72;100.00
39555;BME280;25231;48.746;9.234;2022-11-06T06:31:08;96934.22;;;2.73;100.00
39555;BME280;25231;48.746;9.234;2022-11-06T06:33:34;96933.41;;;2.72;100.00
39555;BME280;25231;48.746;9.234;2022-11-06T06:36:03;96922.81;;;2.82;100.00
39555;BME280;25231;48.746;9.234;2022-11-06T06:38:30;96912.19;;;2.91;100.00
39555;BME280;25231;48.746;9.234;2022-11-06T06:41:00;96907.06;;;3.06;100.00
39555;BME280;25231;48.746;9.234;2022-11-06T06:43:26;96923.03;;;3.10;100.00
39555;BME280;25231;48.746;9.234;2022-11-06T06:45:51;96920.28;;;3.11;100.00
39555;BME280;25231;48.746;9.234;2022-11-06T06:48:17;96921.28;;;3.25;100.00
39555;BME280;25231;48.746;9.234;2022-11-06T06:50:42;96918.72;;;3.40;100.00
39555;BME280;25231;48.746;9.234;2022-11-06T06:53:08;96916.47;;;3.37;100.00
39555;BME280;25231;48.746;9.234;2022-11-06T06:55:33;96913.53;;;3.54;100.00
39555;BME280;25231;48.746;9.234;2022-11-06T06:57:59;96909.59;;;3.58;100.00
39555;BME280;25231;48.746;9.234;2022-11-06T07:00:25;96901.19;;;3.56;100.00
39555;BME280;25231;48.746;9.234;2022-11-06T07:02:51;96902.00;;;3.42;100.00
39555;BME280;25231;48.746;9.234;2022-11-06T07:05:16;96903.00;;;3.56;100.00
39555;BME280;25231;48.746;9.234;2022-11-06T07:07:42;96900.03;;;3.59;100.00
39555;BME280;25231;48.746;9.234;2022-11-06T07:10:07;96894.28;;;3.63;100.00
39555;BME280;25231;48.746;9.234;2022-11-06T07:12:32;96888.50;;;3.61;100.00
39555;BME280;25231;48.746;9.234;2022-11-06T07:14:58;96880.34;;;3.64;100.00
39555;BME280;25231;48.746;9.234;2022-11-06T07:17:23;96882.06;;;3.43;100.00
39555;BME280;25231;48.746;9.234;2022-11-06T07:19:48;96876.91;;;3.43;100.00
39555;BME280;25231;48.746;9.234;2022-11-06T07:22:14;96870.09;;;3.12;100.00
39555;BME280;25231;48.746;9.234;2022-11-06T07:24:39;96873.38;;;2.91;100.00
39555;BME280;25231;48.746;9.234;2022-11-06T07:27:04;96855.84;;;2.79;100.00
39555;BME280;25231;48.746;9.234;2022-11-06T07:29:29;96853.84;;;2.29;100.00
39555;BME280;25231;48.746;9.234;2022-11-06T07:31:55;96856.66;;;2.42;100.00
39555;BME280;25231;48.746;9.234;2022-11-06T07:34:20;96852.75;;;2.46;100.00
39555;BME280;25231;48.746;9.234;2022-11-06T07:36:45;96848.69;;;2.29;100.00
39555;BME280;25231;48.746;9.234;2022-11-06T07:39:11;96847.66;;;2.15;100.00
39555;BME280;25231;48.746;9.234;2022-11-06T07:41:36;96845.63;;;2.02;100.00
39555;BME280;25231;48.746;9.234;2022-11-06T07:44:02;96839.22;;;1.98;100.00
39555;BME280;25231;48.746;9.234;2022-11-06T07:46:27;96826.97;;;2.15;100.00
39555;BME280;25231;48.746;9.234;2022-11-06T07:48:52;96834.44;;;2.33;100.00
39555;BME280;25231;48.746;9.234;2022-11-06T07:51:19;96832.47;;;2.35;100.00
39555;BME280;25231;48.746;9.234;2022-11-06T07:53:44;96828.78;;;2.52;100.00
39555;BME280;25231;48.746;9.234;2022-11-06T07:56:09;96817.19;;;2.63;100.00
39555;BME280;25231;48.746;9.234;2022-11-06T07:58:35;96811.59;;;2.74;100.00
39555;BME280;25231;48.746;9.234;2022-11-06T08:01:00;96807.69;;;2.78;100.00
39555;BME280;25231;48.746;9.234;2022-11-06T08:03:26;96798.38;;;2.69;100.00
39555;BME280;25231;48.746;9.234;2022-11-06T08:05:54;96790.13;;;2.88;100.00
39555;BME280;25231;48.746;9.234;2022-11-06T08:08:20;96794.75;;;2.78;100.00
39555;BME280;25231;48.746;9.234;2022-11-06T08:10:45;96790.13;;;2.88;100.00
39555;BME280;25231;48.746;9.234;2022-11-06T08:13:15;96788.06;;;2.98;100.00
39555;BME280;25231;48.746;9.234;2022-11-06T08:15:41;96782.16;;;2.75;100.00
39555;BME280;25231;48.746;9.234;2022-11-06T08:18:08;96785.00;;;2.80;100.00
39555;BME280;25231;48.746;9.234;2022-11-06T08:20:35;96788.13;;;2.75;100.00
39555;BME280;25231;48.746;9.234;2022-11-06T08:23:02;96782.41;;;2.80;100.00
39555;BME280;25231;48.746;9.234;2022-11-06T08:25:28;96769.66;;;3.08;100.00
39555;BME280;25231;48.746;9.234;2022-11-06T08:27:58;96772.38;;;3.35;100.00
39555;BME280;25231;48.746;9.234;2022-11-06T08:30:25;96764.94;;;3.47;100.00
39555;BME280;25231;48.746;9.234;2022-11-06T08:32:50;96776.41;;;3.38;100.00
39555;BME280;25231;48.746;9.234;2022-11-06T08:35:16;96772.06;;;3.60;100.00
39555;BME280;25231;48.746;9.234;2022-11-06T08:37:42;96771.53;;;3.64;100.00
39555;BME280;25231;48.746;9.234;2022-11-06T08:40:09;96768.75;;;3.87;100.00
39555;BME280;25231;48.746;9.234;2022-11-06T08:42:35;96776.78;;;3.71;100.00
39555;BME280;25231;48.746;9.234;2022-11-06T08:45:00;96776.28;;;4.25;100.00
39555;BME280;25231;48.746;9.234;2022-11-06T08:47:25;96780.56;;;4.11;100.00
39555;BME280;25231;48.746;9.234;2022-11-06T08:49:51;96767.03;;;4.15;100.00
39555;BME280;25231;48.746;9.234;2022-11-06T08:52:16;96758.66;;;4.41;100.00
39555;BME280;25231;48.746;9.234;2022-11-06T08:54:41;96753.00;;;4.59;100.00
39555;BME280;25231;48.746;9.234;2022-11-06T08:57:07;96754.06;;;4.71;100.00
39555;BME280;25231;48.746;9.234;2022-11-06T08:59:32;96761.38;;;4.89;100.00
39555;BME280;25231;48.746;9.234;2022-11-06T09:01:58;96765.00;;;4.94;100.00
39555;BME280;25231;48.746;9.234;2022-11-06T09:04:24;96766.75;;;4.87;100.00
39555;BME280;25231;48.746;9.234;2022-11-06T09:06:49;96764.47;;;5.06;100.00
39555;BME280;25231;48.746;9.234;2022-11-06T09:09:14;96760.75;;;5.28;100.00
39555;BME280;25231;48.746;9.234;2022-11-06T09:11:40;96761.03;;;5.46;100.00
39555;BME280;25231;48.746;9.234;2022-11-06T09:14:05;96769.28;;;5.69;100.00
39555;BME280;25231;48.746;9.234;2022-11-06T09:16:31;96763.31;;;5.82;100.00
39555;BME280;25231;48.746;9.234;2022-11-06T09:18:56;96768.94;;;5.79;100.00
39555;BME280;25231;48.746;9.234;2022-11-06T09:21:22;96765.78;;;5.90;100.00
39555;BME280;25231;48.746;9.234;2022-11-06T09:23:48;96759.38;;;5.93;100.00
39555;BME280;25231;48.746;9.234;2022-11-06T09:26:14;96755.34;;;5.83;100.00
39555;BME280;25231;48.746;9.234;2022-11-06T09:28:40;96753.78;;;6.02;100.00
39555;BME280;25231;48.746;9.234;2022-11-06T09:31:05;96758.81;;;6.17;100.00
39555;BME280;25231;48.746;9.234;2022-11-06T09:33:31;96770.00;;;6.11;100.00
39555;BME280;25231;48.746;9.234;2022-11-06T09:35:57;96788.63;;;6.14;100.00
39555;BME280;25231;48.746;9.234;2022-11-06T09:38:22;96800.03;;;6.13;100.00
39555;BME280;25231;48.746;9.234;2022-11-06T09:40:54;96795.25;;;6.17;100.00
39555;BME280;25231;48.746;9.234;2022-11-06T09:46:23;96778.03;;;6.55;100.00
39555;BME280;25231;48.746;9.234;2022-11-06T09:49:00;96762.19;;;6.77;100.00
39555;BME280;25231;48.746;9.234;2022-11-06T09:54:13;96765.75;;;7.02;100.00
39555;BME280;25231;48.746;9.234;2022-11-06T09:56:40;96763.91;;;7.02;100.00
39555;BME280;25231;48.746;9.234;2022-11-06T09:59:10;96752.09;;;7.06;100.00
39555;BME280;25231;48.746;9.234;2022-11-06T10:01:41;96753.19;;;7.37;100.00
39555;BME280;25231;48.746;9.234;2022-11-06T10:04:39;96751.34;;;7.44;100.00
39555;BME280;25231;48.746;9.234;2022-11-06T10:07:18;96736.91;;;7.41;100.00
39555;BME280;25231;48.746;9.234;2022-11-06T10:09:45;96727.59;;;7.59;100.00
39555;BME280;25231;48.746;9.234;2022-11-06T10:12:26;96721.81;;;7.57;100.00
39555;BME280;25231;48.746;9.234;2022-11-06T10:15:26;96715.94;;;7.68;100.00
39555;BME280;25231;48.746;9.234;2022-11-06T10:20:49;96723.75;;;7.68;100.00
39555;BME280;25231;48.746;9.234;2022-11-06T10:23:19;96714.59;;;7.90;100.00
39555;BME280;25231;48.746;9.234;2022-11-06T10:26:04;96711.38;;;7.88;100.00
39555;BME280;25231;48.746;9.234;2022-11-06T10:28:58;96703.69;;;8.00;100.00
39555;BME280;25231;48.746;9.234;2022-11-06T10:34:25;96677.22;;;7.96;100.00
39555;BME280;25231;48.746;9.234;2022-11-06T10:36:56;96677.81;;;8.23;100.00
39555;BME280;25231;48.746;9.234;2022-11-06T10:39:30;96672.91;;;8.33;100.00
39555;BME280;25231;48.746;9.234;2022-11-06T10:42:01;96659.88;;;8.26;100.00
39555;BME280;25231;48.746;9.234;2022-11-06T10:44:38;96665.09;;;8.26;100.00
39555;BME280;25231;48.746;9.234;2022-11-06T10:47:20;96658.47;;;8.30;100.00
39555;BME280;25231;48.746;9.234;2022-11-06T10:49:53;96664.16;;;8.46;100.00
39555;BME280;25231;48.746;9.234;2022-11-06T10:58:11;96644.94;;;8.58;100.00
39555;BME280;25231;48.746;9.234;2022-11-06T11:00:38;96650.44;;;8.50;100.00
39555;BME280;25231;48.746;9.234;2022-11-06T11:03:24;96637.97;;;8.52;100.00
39555;BME280;25231;48.746;9.234;2022-11-06T11:05:51;96620.84;;;8.56;100.00
39555;BME280;25231;48.746;9.234;2022-11-06T11:13:41;96598.13;;;8.39;100.00
39555;BME280;25231;48.746;9.234;2022-11-06T11:16:25;96596.94;;;7.91;100.00
39555;BME280;25231;48.746;9.234;2022-11-06T11:18:51;96584.31;;;8.13;100.00
39555;BME280;25231;48.746;9.234;2022-11-06T11:21:24;96572.56;;;8.22;100.00
39555;BME280;25231;48.746;9.234;2022-11-06T11:26:26;96562.78;;;8.36;100.00
39555;BME280;25231;48.746;9.234;2022-11-06T11:28:54;96559.44;;;8.65;100.00
39555;BME280;25231;48.746;9.234;2022-11-06T11:31:28;96545.03;;;8.63;100.00
39555;BME280;25231;48.746;9.234;2022-11-06T11:33:56;96539.69;;;8.69;100.00
39555;BME280;25231;48.746;9.234;2022-11-06T11:36:22;96544.03;;;8.75;100.00
39555;BME280;25231;48.746;9.234;2022-11-06T11:38:48;96534.31;;;8.83;100.00
39555;BME280;25231;48.746;9.234;2022-11-06T11:41:23;96526.16;;;8.61;100.00
39555;BME280;25231;48.746;9.234;2022-11-06T11:44:06;96531.66;;;8.53;100.00
39555;BME280;25231;48.746;9.234;2022-11-06T11:46:54;96529.69;;;8.66;100.00
39555;BME280;25231;48.746;9.234;2022-11-06T11:49:33;96520.78;;;8.56;100.00
39555;BME280;25231;48.746;9.234;2022-11-06T11:52:04;96505.47;;;8.59;100.00
39555;BME280;25231;48.746;9.234;2022-11-06T11:54:35;96501.97;;;8.65;100.00
39555;BME280;25231;48.746;9.234;2022-11-06T11:57:17;96496.66;;;8.72;100.00
39555;BME280;25231;48.746;9.234;2022-11-06T11:59:50;96491.34;;;8.79;100.00
39555;BME280;25231;48.746;9.234;2022-11-06T12:02:27;96486.09;;;8.67;100.00
39555;BME280;25231;48.746;9.234;2022-11-06T12:05:03;96480.81;;;8.55;100.00
39555;BME280;25231;48.746;9.234;2022-11-06T12:07:32;96469.53;;;8.73;100.00
39555;BME280;25231;48.746;9.234;2022-11-06T12:10:00;96467.38;;;8.82;100.00
39555;BME280;25231;48.746;9.234;2022-11-06T12:18:12;96471.16;;;8.86;100.00
39555;BME280;25231;48.746;9.234;2022-11-06T12:20:48;96470.06;;;9.05;100.00
39555;BME280;25231;48.746;9.234;2022-11-06T12:23:29;96464.25;;;8.91;100.00
39555;BME280;25231;48.746;9.234;2022-11-06T12:26:03;96451.41;;;8.90;100.00
39555;BME280;25231;48.746;9.234;2022-11-06T12:28:31;96445.94;;;8.91;100.00
39555;BME280;25231;48.746;9.234;2022-11-06T12:31:03;96453.06;;;8.72;100.00
39555;BME280;25231;48.746;9.234;2022-11-06T12:33:30;96452.44;;;9.00;100.00
39555;BME280;25231;48.746;9.234;2022-11-06T12:36:07;96450.00;;;8.87;100.00
39555;BME280;25231;48.746;9.234;2022-11-06T12:39:00;96443.34;;;8.91;100.00
39555;BME280;25231;48.746;9.234;2022-11-06T12:41:36;96440.69;;;8.80;100.00
39555;BME280;25231;48.746;9.234;2022-11-06T12:44:08;96435.63;;;9.08;100.00
39555;BME280;25231;48.746;9.234;2022-11-06T12:55:09;96437.88;;;8.93;100.00
39555;BME280;25231;48.746;9.234;2022-11-06T12:58:02;96429.47;;;9.14;100.00
39555;BME280;25231;48.746;9.234;2022-11-06T13:05:36;96420.84;;;9.02;100.00
39555;BME280;25231;48.746;9.234;2022-11-06T13:16:02;96415.94;;;8.94;100.00
39555;BME280;25231;48.746;9.234;2022-11-06T13:18:37;96412.66;;;9.10;100.00
39555;BME280;25231;48.746;9.234;2022-11-06T13:23:43;96400.97;;;9.36;100.00
39555;BME280;25231;48.746;9.234;2022-11-06T13:26:32;96406.09;;;9.07;100.00
39555;BME280;25231;48.746;9.234;2022-11-06T13:29:02;96404.41;;;9.25;100.00
39555;BME280;25231;48.746;9.234;2022-11-06T13:31:53;96397.31;;;9.48;100.00
39555;BME280;25231;48.746;9.234;2022-11-06T13:34:28;96387.06;;;9.58;100.00
39555;BME280;25231;48.746;9.234;2022-11-06T13:36:55;96390.97;;;9.44;100.00
39555;BME280;25231;48.746;9.234;2022-11-06T13:39:25;96391.88;;;9.27;100.00
39555;BME280;25231;48.746;9.234;2022-11-06T13:41:54;96390.97;;;9.44;99.69
39555;BME280;25231;48.746;9.234;2022-11-06T13:44:22;96385.03;;;9.49;99.93
39555;BME280;25231;48.746;9.234;2022-11-06T13:47:08;96390.94;;;8.98;100.00
39555;BME280;25231;48.746;9.234;2022-11-06T13:52:08;96376.44;;;9.13;100.00
39555;BME280;25231;48.746;9.234;2022-11-06T14:00:21;96382.22;;;9.39;100.00
39555;BME280;25231;48.746;9.234;2022-11-06T14:08:20;96385.50;;;9.46;97.98
39555;BME280;25231;48.746;9.234;2022-11-06T14:10:52;96393.69;;;9.49;99.18
39555;BME280;25231;48.746;9.234;2022-11-06T14:13:27;96375.38;;;9.38;99.12
39555;BME280;25231;48.746;9.234;2022-11-06T14:16:05;96379.59;;;9.39;98.88
39555;BME280;25231;48.746;9.234;2022-11-06T14:18:32;96385.63;;;9.39;98.36
39555;BME280;25231;48.746;9.234;2022-11-06T14:24:12;96379.25;;;9.35;98.99
39555;BME280;25231;48.746;9.234;2022-11-06T14:26:46;96380.38;;;9.28;99.12
39555;BME280;25231;48.746;9.234;2022-11-06T14:34:37;96402.34;;;9.38;98.77
39555;BME280;25231;48.746;9.234;2022-11-06T14:40:03;96396.19;;;9.44;98.52
39555;BME280;25231;48.746;9.234;2022-11-06T14:45:06;96382.91;;;9.23;99.32
39555;BME280;25231;48.746;9.234;2022-11-06T14:47:35;96383.47;;;9.13;100.00
39555;BME280;25231;48.746;9.234;2022-11-06T14:50:06;96388.69;;;9.13;99.95
39555;BME280;25231;48.746;9.234;2022-11-06T14:52:43;96375.50;;;8.96;99.71
39555;BME280;25231;48.746;9.234;2022-11-06T14:55:31;96365.13;;;8.78;100.00
39555;BME280;25231;48.746;9.234;2022-11-06T14:58:10;96366.84;;;8.72;100.00
39555;BME280;25231;48.746;9.234;2022-11-06T15:03:04;96351.81;;;8.56;100.00
39555;BME280;25231;48.746;9.234;2022-11-06T15:05:32;96335.09;;;8.46;100.00
39555;BME280;25231;48.746;9.234;2022-11-06T15:08:02;96343.59;;;8.41;100.00